createdAt,value
2023-02-12T00:01:17.856Z,38.83
2023-02-12T00:03:44.509Z,40.55
2023-02-12T00:06:13.563Z,32.60
2023-02-12T00:08:42.189Z,33.70
2023-02-12T00:11:14.660Z,37.83
2023-02-12T00:13:41.865Z,40.67
2023-02-12T00:16:10.726Z,43.17
2023-02-12T00:18:37.565Z,37.63
2023-02-12T00:21:04.871Z,42.00
2023-02-12T00:23:32.192Z,45.35
2023-02-12T00:25:58.803Z,43.97
2023-02-12T00:28:25.710Z,42.42
2023-02-12T00:30:52.467Z,38.30
2023-02-12T00:33:19.098Z,40.78
2023-02-12T00:35:45.649Z,40.35
2023-02-12T00:38:12.253Z,46.17
2023-02-12T00:40:38.858Z,43.42
2023-02-12T00:43:05.971Z,43.88
2023-02-12T00:45:32.601Z,40.72
2023-02-12T00:47:59.169Z,42.03
2023-02-12T00:50:25.786Z,39.92
2023-02-12T00:52:52.285Z,41.30
2023-02-12T00:55:19.387Z,42.58
2023-02-12T00:57:46.081Z,40.92
2023-02-12T01:00:14.309Z,42.55
2023-02-12T01:02:40.861Z,46.70
2023-02-12T01:05:07.953Z,50.72
2023-02-12T01:07:34.558Z,46.92
2023-02-12T01:10:01.109Z,45.45
2023-02-12T01:12:27.662Z,47.65
2023-02-12T01:14:54.183Z,43.88
2023-02-12T01:17:20.702Z,40.47
2023-02-12T01:19:47.228Z,50.15
2023-02-12T01:22:13.764Z,43.65
2023-02-12T01:24:40.653Z,45.20
2023-02-12T01:27:07.199Z,45.20
2023-02-12T01:29:33.906Z,46.20
2023-02-12T01:32:00.614Z,45.38
2023-02-12T01:34:27.246Z,44.70
2023-02-12T01:36:53.769Z,41.40
2023-02-12T01:39:20.296Z,45.45
2023-02-12T01:41:47.007Z,46.42
2023-02-12T01:44:18.297Z,45.08
2023-02-12T01:46:46.640Z,49.15
2023-02-12T01:49:24.361Z,44.80
2023-02-12T01:52:00.642Z,56.65
2023-02-12T01:54:28.692Z,45.35
2023-02-12T01:56:55.535Z,47.80
2023-02-12T01:59:22.453Z,54.97
2023-02-12T02:01:49.091Z,56.45
2023-02-12T02:04:19.724Z,52.88
2023-02-12T02:07:01.011Z,52.42
2023-02-12T02:09:30.104Z,55.38
2023-02-12T02:12:15.786Z,53.25
2023-02-12T02:14:43.064Z,52.30
2023-02-12T02:17:34.854Z,54.63
2023-02-12T02:20:48.625Z,56.40
2023-02-12T02:23:30.183Z,54.08
2023-02-12T02:26:38.450Z,58.55
2023-02-12T02:29:30.516Z,55.08
2023-02-12T02:32:06.176Z,58.22
2023-02-12T02:35:10.375Z,55.78
2023-02-12T02:37:47.708Z,58.20
2023-02-12T02:40:26.716Z,58.40
2023-02-12T02:43:05.316Z,57.60
2023-02-12T02:45:42.136Z,61.53
2023-02-12T02:48:15.642Z,57.58
2023-02-12T02:50:47.336Z,57.75
2023-02-12T02:53:26.814Z,60.17
2023-02-12T02:55:57.386Z,58.92
2023-02-12T02:58:30.283Z,62.92
2023-02-12T03:01:17.849Z,60.70
2023-02-12T03:04:13.426Z,57.53
2023-02-12T03:06:47.072Z,63.83
2023-02-12T03:09:28.748Z,61.30
2023-02-12T03:12:00.254Z,59.28
2023-02-12T03:14:32.039Z,65.40
2023-02-12T03:17:12.472Z,62.88
2023-02-12T03:19:44.915Z,68.05
2023-02-12T03:22:16.700Z,57.35
2023-02-12T03:25:05.531Z,60.97
2023-02-12T03:27:37.130Z,63.70
2023-02-12T03:30:04.570Z,65.30
2023-02-12T03:32:40.981Z,58.95
2023-02-12T03:35:28.746Z,57.10
2023-02-12T03:38:07.532Z,61.50
2023-02-12T03:40:56.245Z,56.88
2023-02-12T03:43:33.003Z,62.15
2023-02-12T03:46:17.668Z,65.75
2023-02-12T03:48:58.435Z,63.67
2023-02-12T03:51:34.906Z,65.10
2023-02-12T03:54:02.391Z,71.10
2023-02-12T03:56:35.195Z,67.45
2023-02-12T03:59:02.804Z,66.80
2023-02-12T04:01:29.647Z,63.75
2023-02-12T04:03:57.148Z,68.97
2023-02-12T04:06:28.923Z,68.18
2023-02-12T04:08:59.070Z,61.85
2023-02-12T04:11:52.483Z,69.63
2023-02-12T04:14:35.584Z,63.30
2023-02-12T04:17:26.445Z,71.07
2023-02-12T04:20:04.697Z,75.05
2023-02-12T04:22:46.082Z,70.88
2023-02-12T04:25:37.996Z,72.15
2023-02-12T04:28:16.520Z,68.53
2023-02-12T04:31:01.216Z,69.82
2023-02-12T04:33:36.423Z,66.82
2023-02-12T04:36:16.774Z,71.68
2023-02-12T04:38:46.798Z,70.32
2023-02-12T04:41:13.913Z,63.92
2023-02-12T04:43:40.456Z,71.97
2023-02-12T04:46:08.548Z,67.68
2023-02-12T04:48:39.676Z,66.03
2023-02-12T04:53:32.819Z,68.30
2023-02-12T04:55:59.352Z,74.47
2023-02-12T04:58:25.870Z,71.63
2023-02-12T05:00:52.384Z,73.43
2023-02-12T05:03:18.914Z,73.57
2023-02-12T05:05:45.461Z,72.80
2023-02-12T05:08:11.978Z,69.20
2023-02-12T05:10:38.555Z,75.38
2023-02-12T05:13:05.052Z,76.13
2023-02-12T05:15:31.618Z,72.55
2023-02-12T05:17:58.150Z,72.50
2023-02-12T05:20:24.750Z,76.40
2023-02-12T05:22:53.322Z,72.00
2023-02-12T05:25:20.374Z,71.57
2023-02-12T05:27:47.249Z,78.35
2023-02-12T05:30:14.011Z,82.43
2023-02-12T05:32:40.611Z,76.10
2023-02-12T05:35:07.853Z,73.78
2023-02-12T05:37:36.121Z,79.25
2023-02-12T05:40:05.532Z,75.78
2023-02-12T05:42:32.194Z,77.40
2023-02-12T05:44:58.775Z,81.95
2023-02-12T05:47:25.332Z,77.38
2023-02-12T05:49:52.063Z,75.80
2023-02-12T05:52:18.626Z,80.60
2023-02-12T05:54:45.176Z,77.72
2023-02-12T05:57:11.743Z,77.55
2023-02-12T05:59:39.187Z,77.38
2023-02-12T06:02:05.771Z,76.35
2023-02-12T06:04:32.340Z,72.13
2023-02-12T06:07:00.671Z,74.55
2023-02-12T06:09:27.254Z,74.22
2023-02-12T06:11:53.761Z,90.68
2023-02-12T06:14:21.302Z,86.78
2023-02-12T06:16:50.827Z,79.05
2023-02-12T06:19:18.682Z,78.32
2023-02-12T06:21:46.216Z,80.55
2023-02-12T06:24:13.945Z,83.57
2023-02-12T06:26:40.818Z,80.75
2023-02-12T06:29:07.532Z,80.93
2023-02-12T06:31:36.434Z,84.88
2023-02-12T06:34:08.381Z,80.15
2023-02-12T06:36:41.518Z,81.38
2023-02-12T06:39:08.619Z,82.45
2023-02-12T06:41:35.164Z,76.15
2023-02-12T06:44:01.827Z,76.93
2023-02-12T06:46:28.416Z,86.00
2023-02-12T06:49:00.289Z,78.85
2023-02-12T06:51:28.856Z,81.32
2023-02-12T06:53:56.151Z,79.00
2023-02-12T06:56:24.379Z,80.60
2023-02-12T06:59:00.304Z,81.95
2023-02-12T07:01:29.309Z,86.65
2023-02-12T07:04:02.418Z,83.45
2023-02-12T07:06:30.801Z,75.47
2023-02-12T07:08:58.212Z,78.90
2023-02-12T07:11:26.411Z,81.82
2023-02-12T07:13:53.151Z,77.22
2023-02-12T07:16:20.072Z,84.18
2023-02-12T07:18:46.657Z,79.47
2023-02-12T07:21:14.551Z,75.97
2023-02-12T07:23:41.387Z,107.40
2023-02-12T07:26:11.505Z,102.78
2023-02-12T07:28:39.116Z,78.68
2023-02-12T07:31:17.293Z,72.28
2023-02-12T07:33:44.714Z,72.25
2023-02-12T07:36:17.162Z,68.25
2023-02-12T07:38:44.130Z,68.43
2023-02-12T07:41:13.669Z,71.30
2023-02-12T07:43:41.682Z,68.05
2023-02-12T07:46:14.304Z,73.40
2023-02-12T07:48:41.046Z,72.32
2023-02-12T07:51:09.970Z,67.28
2023-02-12T07:53:37.063Z,69.22
2023-02-12T07:56:14.951Z,69.75
2023-02-12T07:58:44.834Z,68.40
2023-02-12T08:01:30.005Z,72.72
2023-02-12T08:04:03.054Z,65.60
2023-02-12T08:06:31.684Z,68.57
2023-02-12T08:09:00.557Z,69.22
2023-02-12T08:11:28.976Z,67.88
2023-02-12T08:13:56.867Z,62.15
2023-02-12T08:16:25.105Z,67.95
2023-02-12T08:18:52.527Z,65.35
2023-02-12T08:21:21.345Z,67.20
2023-02-12T08:23:51.191Z,62.00
2023-02-12T08:26:21.018Z,56.78
2023-02-12T08:28:55.944Z,64.05
2023-02-12T08:31:55.162Z,56.35
2023-02-12T08:34:30.450Z,55.75
2023-02-12T08:36:57.775Z,54.45
2023-02-12T08:39:26.532Z,62.70
2023-02-12T08:41:57.534Z,53.35
2023-02-12T08:44:24.389Z,49.67
2023-02-12T08:46:52.998Z,48.63
2023-02-12T08:49:22.539Z,51.90
2023-02-12T08:51:52.511Z,47.53
2023-02-12T08:54:22.879Z,48.95
2023-02-12T08:56:50.333Z,46.95
2023-02-12T08:59:17.749Z,47.15
2023-02-12T09:01:44.968Z,45.35
2023-02-12T09:04:17.971Z,44.85
2023-02-12T09:06:45.926Z,42.75
2023-02-12T09:09:12.823Z,38.90
2023-02-12T09:11:39.548Z,43.22
2023-02-12T09:14:09.153Z,41.28
2023-02-12T09:16:37.213Z,41.25
2023-02-12T09:19:04.673Z,39.47
2023-02-12T09:21:31.286Z,40.22
2023-02-12T09:23:57.826Z,37.83
2023-02-12T09:26:28.556Z,38.95
2023-02-12T09:28:55.239Z,38.38
2023-02-12T09:31:27.560Z,36.78
2023-02-12T09:33:58.412Z,34.95
2023-02-12T09:36:25.563Z,38.85
2023-02-12T09:38:54.026Z,37.97
2023-02-12T09:41:54.042Z,36.03
2023-02-12T09:44:40.752Z,36.35
2023-02-12T09:47:31.290Z,36.42
2023-02-12T09:50:42.630Z,34.50
2023-02-12T09:53:14.872Z,33.10
2023-02-12T09:55:41.420Z,37.28
2023-02-12T09:58:15.537Z,34.13
2023-02-12T10:00:42.193Z,33.40
2023-02-12T10:03:14.657Z,31.52
2023-02-12T10:05:43.006Z,32.35
2023-02-12T10:08:12.576Z,35.75
2023-02-12T10:11:17.787Z,32.60
2023-02-12T10:14:21.738Z,30.70
2023-02-12T10:17:05.923Z,32.15
2023-02-12T10:19:44.367Z,31.33
2023-02-12T10:22:23.284Z,32.78
2023-02-12T10:25:27.438Z,30.80
2023-02-12T10:27:56.652Z,31.00
2023-02-12T10:30:31.667Z,32.22
2023-02-12T10:33:06.753Z,31.52
2023-02-12T10:35:34.834Z,33.13
2023-02-12T10:38:13.767Z,33.78
2023-02-12T10:40:44.696Z,30.17
2023-02-12T10:45:42.221Z,29.67
2023-02-12T10:48:24.303Z,32.55
2023-02-12T10:51:02.607Z,30.98
2023-02-12T10:53:35.512Z,30.15
2023-02-12T10:56:22.977Z,31.23
2023-02-12T10:58:59.279Z,31.73
2023-02-12T11:01:33.302Z,30.42
2023-02-12T11:04:18.878Z,32.30
2023-02-12T11:07:04.749Z,28.60
2023-02-12T11:09:45.852Z,30.13
2023-02-12T11:12:24.538Z,29.95
2023-02-12T11:14:57.026Z,31.05
2023-02-12T11:17:39.427Z,29.60
2023-02-12T11:20:18.003Z,29.67
2023-02-12T11:22:55.250Z,26.50
2023-02-12T11:25:23.153Z,30.45
2023-02-12T11:28:05.076Z,29.35
2023-02-12T11:30:32.595Z,27.52
2023-02-12T11:33:27.421Z,28.95
2023-02-12T11:35:57.457Z,28.65
2023-02-12T11:38:28.356Z,31.60
2023-02-12T11:40:59.964Z,32.97
2023-02-12T11:43:29.260Z,30.65
2023-02-12T11:45:57.018Z,30.60
2023-02-12T11:48:31.492Z,30.40
2023-02-12T11:51:02.149Z,29.25
2023-02-12T11:53:50.986Z,31.95
2023-02-12T11:56:18.421Z,30.30
2023-02-12T11:58:47.017Z,30.88
2023-02-12T12:01:22.366Z,31.85
2023-02-12T12:04:08.132Z,30.70
2023-02-12T12:06:38.811Z,29.30
2023-02-12T12:09:27.707Z,31.48
2023-02-12T12:12:16.298Z,32.53
2023-02-12T12:15:08.740Z,35.22
2023-02-12T12:18:05.821Z,34.70
2023-02-12T12:20:41.098Z,36.15
2023-02-12T12:23:21.634Z,37.00
2023-02-12T12:26:22.130Z,32.20
2023-02-12T12:29:01.775Z,32.80
2023-02-12T12:31:41.764Z,33.10
2023-02-12T12:34:22.330Z,28.20
2023-02-12T12:37:12.010Z,30.27
2023-02-12T12:40:25.935Z,28.98
2023-02-12T12:43:02.104Z,29.35
2023-02-12T12:46:00.978Z,33.50
2023-02-12T12:48:59.054Z,33.50
2023-02-12T12:52:23.615Z,29.58
2023-02-12T12:55:40.220Z,33.30
2023-02-12T12:58:35.567Z,30.23
2023-02-12T13:01:05.012Z,28.08
2023-02-12T13:03:58.607Z,30.00
2023-02-12T13:06:31.578Z,30.45
2023-02-12T13:09:17.738Z,31.30
2023-02-12T13:11:56.344Z,26.35
2023-02-12T13:14:47.423Z,27.08
2023-02-12T13:17:23.219Z,29.50
2023-02-12T13:19:57.595Z,28.48
2023-02-12T13:22:40.138Z,30.75
2023-02-12T13:25:19.763Z,28.27
2023-02-12T13:27:47.884Z,28.60
2023-02-12T13:30:14.360Z,26.70
2023-02-12T13:32:47.052Z,28.98
2023-02-12T13:35:20.889Z,30.05
2023-02-12T13:37:51.222Z,28.42
2023-02-12T13:40:21.411Z,24.63
2023-02-12T13:42:53.868Z,24.93
2023-02-12T13:45:44.004Z,25.02
2023-02-12T13:48:42.745Z,27.42
2023-02-12T13:51:29.135Z,26.05
2023-02-12T13:53:59.674Z,24.27
2023-02-12T13:56:34.341Z,26.98
2023-02-12T13:59:01.029Z,23.90
2023-02-12T14:01:49.129Z,23.38
2023-02-12T14:04:22.812Z,23.40
2023-02-12T14:07:06.609Z,26.42
2023-02-12T14:09:37.921Z,26.60
2023-02-12T14:12:10.242Z,28.00
2023-02-12T14:14:44.783Z,24.00
2023-02-12T14:17:41.677Z,23.88
2023-02-12T14:20:25.618Z,23.88
2023-02-12T14:22:52.116Z,25.58
2023-02-12T14:25:24.375Z,23.75
2023-02-12T14:27:58.153Z,24.25
2023-02-12T14:30:31.836Z,25.25
2023-02-12T14:33:11.562Z,23.52
2023-02-12T14:35:43.601Z,28.90
2023-02-12T14:38:16.239Z,25.13
2023-02-12T14:40:50.138Z,24.48
2023-02-12T14:43:56.227Z,27.70
2023-02-12T14:46:22.764Z,24.35
2023-02-12T14:49:21.079Z,23.08
2023-02-12T14:52:17.984Z,27.20
2023-02-12T14:54:47.233Z,23.92
2023-02-12T14:57:35.008Z,25.52
2023-02-12T15:00:19.319Z,29.80
2023-02-12T15:02:59.750Z,23.20
2023-02-12T15:05:31.226Z,22.67
2023-02-12T15:08:28.228Z,24.20
2023-02-12T15:11:27.964Z,21.33
2023-02-12T15:14:03.277Z,23.52
2023-02-12T15:16:35.616Z,22.42
2023-02-12T15:19:20.512Z,23.02
2023-02-12T15:21:48.073Z,21.98
2023-02-12T15:24:23.206Z,20.40
2023-02-12T15:26:52.300Z,22.63
2023-02-12T15:29:33.318Z,19.75
2023-02-12T15:32:04.571Z,19.45
2023-02-12T15:34:35.290Z,20.13
2023-02-12T15:37:03.552Z,19.25
2023-02-12T15:39:43.865Z,19.35
2023-02-12T15:42:33.536Z,19.70
2023-02-12T15:45:15.058Z,18.13
2023-02-12T15:47:42.937Z,18.10
2023-02-12T15:50:15.916Z,15.88
2023-02-12T15:52:46.070Z,20.10
2023-02-12T15:55:25.662Z,17.57
2023-02-12T15:57:55.265Z,15.23
2023-02-12T16:00:35.369Z,16.35
2023-02-12T16:03:01.893Z,15.90
2023-02-12T16:05:29.649Z,17.85
2023-02-12T16:07:56.400Z,17.90
2023-02-12T16:10:23.559Z,15.65
2023-02-12T16:12:51.507Z,14.90
2023-02-12T16:15:30.747Z,14.52
2023-02-12T16:17:59.666Z,14.43
2023-02-12T16:20:28.514Z,17.10
2023-02-12T16:22:56.133Z,13.93
2023-02-12T16:25:31.292Z,14.40
2023-02-12T16:27:59.168Z,17.92
2023-02-12T16:30:27.122Z,23.08
2023-02-12T16:32:54.384Z,28.42
2023-02-12T16:35:26.059Z,14.00
2023-02-12T16:38:24.771Z,16.35
2023-02-12T16:41:26.001Z,13.68
2023-02-12T16:44:01.793Z,15.45
2023-02-12T16:46:49.687Z,16.17
2023-02-12T16:49:18.530Z,13.05
2023-02-12T16:51:46.178Z,14.80
2023-02-12T16:54:34.666Z,14.88
2023-02-12T16:57:02.194Z,14.95
2023-02-12T16:59:29.679Z,16.50
2023-02-12T17:02:02.586Z,16.63
2023-02-12T17:04:29.384Z,15.60
2023-02-12T17:06:56.671Z,18.67
2023-02-12T17:09:23.852Z,21.13
2023-02-12T17:11:50.898Z,16.98
2023-02-12T17:14:19.771Z,13.25
2023-02-12T17:16:47.057Z,14.80
2023-02-12T17:19:13.960Z,16.13
2023-02-12T17:21:43.351Z,14.30
2023-02-12T17:24:20.786Z,21.45
2023-02-12T17:26:47.462Z,16.88
2023-02-12T17:29:13.999Z,18.67
2023-02-12T17:31:40.626Z,19.17
2023-02-12T17:34:07.284Z,16.25
2023-02-12T17:36:34.473Z,16.85
2023-02-12T17:39:03.457Z,14.93
2023-02-12T17:41:31.102Z,14.98
2023-02-12T17:43:57.601Z,14.38
2023-02-12T17:46:26.734Z,34.30
2023-02-12T17:48:53.332Z,18.73
2023-02-12T17:51:20.117Z,18.67
2023-02-12T17:53:46.804Z,15.75
2023-02-12T17:56:17.664Z,17.27
2023-02-12T17:58:46.104Z,14.30
2023-02-12T18:01:15.850Z,15.35
2023-02-12T18:03:42.623Z,16.27
2023-02-12T18:06:13.802Z,15.20
2023-02-12T18:11:10.281Z,15.77
2023-02-12T18:13:37.918Z,19.48
2023-02-12T18:16:09.356Z,16.27
2023-02-12T18:18:36.734Z,21.00
2023-02-12T18:21:11.269Z,25.05
2023-02-12T18:23:39.136Z,20.58
2023-02-12T18:26:11.169Z,16.55
2023-02-12T18:28:38.169Z,19.08
2023-02-12T18:31:05.954Z,17.63
2023-02-12T18:33:36.882Z,27.58
2023-02-12T18:36:06.638Z,23.98
2023-02-12T18:38:35.841Z,26.00
2023-02-12T18:41:18.420Z,20.38
2023-02-12T18:43:46.380Z,18.85
2023-02-12T18:46:15.968Z,19.63
2023-02-12T18:48:43.191Z,43.72
2023-02-12T18:51:14.067Z,22.27
2023-02-12T18:53:40.655Z,19.17
2023-02-12T18:56:08.783Z,20.65
2023-02-12T18:58:36.098Z,18.50
2023-02-12T19:01:17.334Z,17.33
2023-02-12T19:03:45.293Z,19.85
2023-02-12T19:06:12.054Z,17.83
2023-02-12T19:08:39.270Z,17.40
2023-02-12T19:11:07.169Z,16.67
2023-02-12T19:13:33.997Z,20.63
2023-02-12T19:16:09.644Z,20.52
2023-02-12T19:18:36.247Z,19.33
2023-02-12T19:21:10.697Z,18.98
2023-02-12T19:23:38.063Z,21.52
2023-02-12T19:26:09.533Z,21.08
2023-02-12T19:28:38.203Z,21.50
2023-02-12T19:31:32.467Z,20.20
2023-02-12T19:34:01.693Z,19.92
2023-02-12T19:36:32.552Z,20.30
2023-02-12T19:38:59.834Z,18.45
2023-02-12T19:41:28.539Z,20.25
2023-02-12T19:43:58.216Z,20.17
2023-02-12T19:46:27.908Z,20.60
2023-02-12T19:49:02.462Z,18.38
2023-02-12T19:51:30.270Z,22.30
2023-02-12T19:54:02.036Z,22.02
2023-02-12T19:56:28.880Z,18.70
2023-02-12T19:58:57.213Z,21.70
2023-02-12T20:01:24.611Z,24.65
2023-02-12T20:03:51.432Z,25.60
2023-02-12T20:06:24.683Z,22.27
2023-02-12T20:08:51.796Z,30.58
2023-02-12T20:11:24.003Z,26.70
2023-02-12T20:13:50.764Z,20.67
2023-02-12T20:16:20.402Z,21.55
2023-02-12T20:18:49.634Z,22.02
2023-02-12T20:21:27.266Z,21.50
2023-02-12T20:23:54.514Z,24.23
2023-02-12T20:26:21.918Z,21.38
2023-02-12T20:28:49.702Z,27.73
2023-02-12T20:31:25.405Z,25.55
2023-02-12T20:34:07.163Z,27.52
2023-02-12T20:36:36.580Z,22.38
2023-02-12T20:39:04.798Z,23.25
2023-02-12T20:41:31.358Z,22.20
2023-02-12T20:44:00.781Z,20.88
2023-02-12T20:46:27.958Z,24.48
2023-02-12T20:48:55.156Z,23.58
2023-02-12T20:51:24.650Z,28.38
2023-02-12T20:53:51.419Z,28.40
2023-02-12T20:56:24.572Z,24.75
2023-02-12T20:58:51.415Z,25.00
2023-02-12T21:01:32.614Z,23.23
2023-02-12T21:04:13.412Z,24.02
2023-02-12T21:06:41.499Z,20.73
2023-02-12T21:09:10.004Z,22.92
2023-02-12T21:11:37.282Z,24.38
2023-02-12T21:14:20.824Z,25.48
2023-02-12T21:16:48.771Z,24.17
2023-02-12T21:19:15.340Z,24.50
2023-02-12T21:21:44.992Z,25.77
2023-02-12T21:24:15.393Z,22.73
2023-02-12T21:26:42.309Z,24.75
2023-02-12T21:29:08.938Z,26.65
2023-02-12T21:31:38.368Z,24.35
2023-02-12T21:34:06.472Z,26.77
2023-02-12T21:36:36.952Z,25.48
2023-02-12T21:39:06.193Z,25.45
2023-02-12T21:41:35.801Z,25.05
2023-02-12T21:44:10.915Z,24.77
2023-02-12T21:46:37.650Z,26.58
2023-02-12T21:49:05.094Z,25.90
2023-02-12T21:51:34.565Z,24.55
2023-02-12T21:54:04.261Z,27.05
2023-02-12T21:56:31.249Z,29.95
2023-02-12T21:58:59.054Z,29.67
2023-02-12T22:01:28.730Z,24.88
2023-02-12T22:03:55.656Z,26.45
2023-02-12T22:06:24.518Z,25.83
2023-02-12T22:08:52.417Z,25.48
2023-02-12T22:11:20.324Z,26.05
2023-02-12T22:13:47.235Z,27.75
2023-02-12T22:16:17.555Z,26.88
2023-02-12T22:18:45.283Z,27.42
2023-02-12T22:21:13.795Z,27.98
2023-02-12T22:23:41.024Z,29.85
2023-02-12T22:26:15.949Z,29.20
2023-02-12T22:28:45.079Z,27.60
2023-02-12T22:31:14.083Z,31.50
2023-02-12T22:33:40.669Z,30.77
2023-02-12T22:36:09.146Z,30.67
2023-02-12T22:38:37.888Z,27.77
2023-02-12T22:41:05.335Z,34.55
2023-02-12T22:43:33.323Z,29.00
2023-02-12T22:46:00.329Z,30.00
2023-02-12T22:48:28.358Z,33.35
2023-02-12T22:50:55.838Z,33.72
2023-02-12T22:53:23.438Z,32.13
2023-02-12T22:55:50.094Z,32.95
2023-02-12T22:58:16.904Z,29.90
2023-02-12T23:00:44.085Z,33.17
2023-02-12T23:03:10.766Z,31.65
2023-02-12T23:05:38.395Z,34.10
2023-02-12T23:08:06.267Z,35.20
2023-02-12T23:10:33.583Z,34.10
2023-02-12T23:13:02.099Z,31.80
2023-02-12T23:15:28.935Z,33.70
2023-02-12T23:17:55.433Z,32.58
2023-02-12T23:20:22.026Z,34.05
2023-02-12T23:22:48.677Z,33.15
2023-02-12T23:25:15.326Z,33.10
2023-02-12T23:27:41.889Z,33.45
2023-02-12T23:30:09.052Z,37.92
2023-02-12T23:32:35.628Z,37.13
2023-02-12T23:35:02.185Z,35.17
2023-02-12T23:37:28.706Z,32.72
2023-02-12T23:39:55.389Z,34.22
2023-02-12T23:42:21.938Z,32.53
2023-02-12T23:44:48.478Z,34.65
2023-02-12T23:47:14.965Z,34.78
2023-02-12T23:49:41.498Z,32.45
2023-02-12T23:52:08.059Z,30.85
2023-02-12T23:54:34.646Z,34.13
2023-02-12T23:57:01.272Z,35.28
2023-02-12T23:59:27.792Z,33.00
